Time;durP1;ratioP1;P1;durP2;ratioP2;P2;SDS_P1;SDS_P2;PMS_P1;PMS_P2;Temp;Humidity;BMP_temperature;BMP_pressure;BME280_temperature;BME280_humidity;BME280_pressure;Samples;Min_cycle;Max_cycle;Signal;HPM_P1;HPM_P2
2023/08/10 00:02:01;;;;;;;0.70;0.60;;;;;;;;;;5048561;28;20032;-75
2023/08/10 00:04:27;;;;;;;0.55;0.55;;;;;;;;;;5048143;28;20033;-75
2023/08/10 00:06:53;;;;;;;0.73;0.60;;;;;;;;;;5048227;28;20029;-75
2023/08/10 00:09:19;;;;;;;0.65;0.60;;;;;;;;;;5050375;28;20016;-75
2023/08/10 00:11:45;;;;;;;0.90;0.70;;;;;;;;;;5068154;28;20051;-75
2023/08/10 00:14:11;;;;;;;0.40;0.40;;;;;;;;;;5067910;28;20641;-75
2023/08/10 00:16:38;;;;;;;0.63;0.60;;;;;;;;;;5051890;28;20421;-75
2023/08/10 00:19:04;;;;;;;0.55;0.55;;;;;;;;;;5047883;28;20021;-75
2023/08/10 00:21:30;;;;;;;0.85;0.68;;;;;;;;;;5047649;28;20407;-75
2023/08/10 00:23:56;;;;;;;0.73;0.60;;;;;;;;;;5049020;28;20392;-75
2023/08/10 00:26:25;;;;;;;0.90;0.60;;;;;;;;;;5054490;28;20474;-75
2023/08/10 00:28:54;;;;;;;0.60;0.40;;;;;;;;;;5071906;28;20036;-75
2023/08/10 00:31:20;;;;;;;0.47;0.47;;;;;;;;;;5058494;28;20021;-75
2023/08/10 00:33:46;;;;;;;0.77;0.73;;;;;;;;;;5054927;28;20021;-75
2023/08/10 00:36:12;;;;;;;0.95;0.70;;;;;;;;;;5051443;28;20100;-75
2023/08/10 00:38:38;;;;;;;0.65;0.60;;;;;;;;;;5070027;28;20383;-75
2023/08/10 00:41:04;;;;;;;1.63;0.70;;;;;;;;;;5065655;28;20072;-75
2023/08/10 00:43:31;;;;;;;0.70;0.55;;;;;;;;;;5058756;28;20050;-75
2023/08/10 00:45:58;;;;;;;0.82;0.57;;;;;;;;;;5055182;28;20116;-75
2023/08/10 00:48:25;;;;;;;0.40;0.40;;;;;;;;;;5056312;28;20028;-75
2023/08/10 00:50:51;;;;;;;0.65;0.65;;;;;;;;;;5054939;28;20037;-75
2023/08/10 00:53:17;;;;;;;1.00;0.50;;;;;;;;;;5059618;28;20036;-75
2023/08/10 00:55:44;;;;;;;1.52;0.60;;;;;;;;;;5061844;28;20024;-75
2023/08/10 00:58:11;;;;;;;1.67;0.60;;;;;;;;;;5052282;28;20025;-75
2023/08/10 01:00:37;;;;;;;0.60;0.60;;;;;;;;;;5055092;28;20468;-76
2023/08/10 01:03:04;;;;;;;0.52;0.52;;;;;;;;;;5067297;28;20498;-75
2023/08/10 01:05:32;;;;;;;0.85;0.60;;;;;;;;;;5065545;28;20514;-75
2023/08/10 01:08:03;;;;;;;0.95;0.70;;;;;;;;;;5061610;28;20123;-75
2023/08/10 01:10:40;;;;;;;1.40;0.50;;;;;;;;;;5063421;28;20788;-76
2023/08/10 01:13:22;;;;;;;1.10;0.80;;;;;;;;;;5055830;28;20136;-75
2023/08/10 01:15:52;;;;;;;0.70;0.70;;;;;;;;;;5053050;28;20017;-75
2023/08/10 01:18:20;;;;;;;0.95;0.50;;;;;;;;;;5051971;28;20131;-75
2023/08/10 01:20:47;;;;;;;1.10;0.65;;;;;;;;;;5050340;28;20472;-76
2023/08/10 01:23:24;;;;;;;1.35;0.88;;;;;;;;;;5056595;28;20016;-76
2023/08/10 01:25:50;;;;;;;0.68;0.63;;;;;;;;;;5070599;28;20029;-75
2023/08/10 01:28:17;;;;;;;0.50;0.50;;;;;;;;;;5057677;28;20033;-76
2023/08/10 01:30:44;;;;;;;0.60;0.60;;;;;;;;;;5062055;28;20039;-75
2023/08/10 01:33:10;;;;;;;0.63;0.50;;;;;;;;;;5051286;28;20029;-76
2023/08/10 01:35:36;;;;;;;1.08;0.80;;;;;;;;;;5065575;28;20471;-75
2023/08/10 01:38:03;;;;;;;2.22;0.65;;;;;;;;;;5054633;28;20024;-76
2023/08/10 01:40:30;;;;;;;0.98;0.70;;;;;;;;;;5049766;28;20040;-75
2023/08/10 01:42:56;;;;;;;0.80;0.60;;;;;;;;;;5055499;28;20033;-75
2023/08/10 01:45:22;;;;;;;2.05;0.57;;;;;;;;;;5053487;28;20029;-76
2023/08/10 01:48:05;;;;;;;0.98;0.60;;;;;;;;;;5054845;28;20017;-75
2023/08/10 01:50:34;;;;;;;0.68;0.65;;;;;;;;;;5051550;28;20029;-75
2023/08/10 01:53:04;;;;;;;1.08;0.63;;;;;;;;;;5062267;28;20047;-75
2023/08/10 01:55:30;;;;;;;0.57;0.52;;;;;;;;;;5053551;28;20025;-76
2023/08/10 01:57:56;;;;;;;0.82;0.70;;;;;;;;;;5059533;28;20039;-75
2023/08/10 02:00:22;;;;;;;0.52;0.43;;;;;;;;;;5062441;28;20032;-75
2023/08/10 02:02:48;;;;;;;1.92;0.70;;;;;;;;;;5055678;28;20021;-75
2023/08/10 02:05:14;;;;;;;0.50;0.50;;;;;;;;;;5052298;28;20036;-74
2023/08/10 02:07:41;;;;;;;1.27;0.50;;;;;;;;;;5051808;28;20033;-75
2023/08/10 02:10:07;;;;;;;1.45;0.70;;;;;;;;;;5064051;28;20032;-75
2023/08/10 02:12:33;;;;;;;0.30;0.30;;;;;;;;;;5066432;28;20041;-75
2023/08/10 02:15:00;;;;;;;0.55;0.55;;;;;;;;;;5055203;28;20029;-76
2023/08/10 02:17:28;;;;;;;1.33;0.73;;;;;;;;;;5063958;28;20032;-75
2023/08/10 02:19:55;;;;;;;0.75;0.50;;;;;;;;;;5067170;28;20412;-75
2023/08/10 02:22:24;;;;;;;0.90;0.65;;;;;;;;;;5061929;28;20159;-75
2023/08/10 02:24:50;;;;;;;1.30;0.60;;;;;;;;;;5067320;28;20042;-75
2023/08/10 02:27:19;;;;;;;1.02;0.60;;;;;;;;;;5052381;28;20590;-75
2023/08/10 02:29:45;;;;;;;1.27;0.52;;;;;;;;;;5051758;28;20028;-75
2023/08/10 02:32:11;;;;;;;0.57;0.57;;;;;;;;;;5055715;28;20021;-76
2023/08/10 02:34:37;;;;;;;0.90;0.70;;;;;;;;;;5068718;28;20487;-76
2023/08/10 02:37:03;;;;;;;3.55;0.55;;;;;;;;;;5053164;28;20083;-75
2023/08/10 02:39:29;;;;;;;0.90;0.60;;;;;;;;;;5062306;28;20060;-76
2023/08/10 02:41:55;;;;;;;0.55;0.55;;;;;;;;;;5053342;28;20032;-75
2023/08/10 02:44:21;;;;;;;1.85;0.90;;;;;;;;;;5060159;28;20115;-75
2023/08/10 02:46:47;;;;;;;0.65;0.60;;;;;;;;;;5057098;28;20029;-76
2023/08/10 02:49:13;;;;;;;0.60;0.60;;;;;;;;;;5052003;28;20025;-75
2023/08/10 02:51:39;;;;;;;1.45;0.60;;;;;;;;;;5050145;28;20035;-75
2023/08/10 02:54:05;;;;;;;0.90;0.60;;;;;;;;;;5063685;28;20031;-76
2023/08/10 02:56:31;;;;;;;1.33;0.60;;;;;;;;;;5068233;28;20021;-76
2023/08/10 02:58:57;;;;;;;0.90;0.80;;;;;;;;;;5054600;28;20025;-75
2023/08/10 03:01:23;;;;;;;0.70;0.70;;;;;;;;;;5061348;28;20040;-75
2023/08/10 03:03:49;;;;;;;0.90;0.80;;;;;;;;;;5048585;28;20033;-75
2023/08/10 03:06:15;;;;;;;1.20;0.80;;;;;;;;;;5049185;28;20032;-75
2023/08/10 03:08:41;;;;;;;0.50;0.50;;;;;;;;;;5067660;28;20044;-75
2023/08/10 03:11:07;;;;;;;0.65;0.63;;;;;;;;;;5066798;28;20033;-75
2023/08/10 03:13:33;;;;;;;0.57;0.57;;;;;;;;;;5050263;28;20017;-75
2023/08/10 03:15:59;;;;;;;0.45;0.45;;;;;;;;;;5049390;28;20496;-75
2023/08/10 03:18:25;;;;;;;0.70;0.70;;;;;;;;;;5048943;28;20025;-76
2023/08/10 03:20:51;;;;;;;0.85;0.65;;;;;;;;;;5060418;28;20107;-76
2023/08/10 03:23:17;;;;;;;0.80;0.60;;;;;;;;;;5058964;28;20103;-75
2023/08/10 03:25:43;;;;;;;0.98;0.45;;;;;;;;;;5067529;28;20596;-75
2023/08/10 03:28:09;;;;;;;0.50;0.50;;;;;;;;;;5057332;28;20040;-75
2023/08/10 03:30:36;;;;;;;0.93;0.63;;;;;;;;;;5065603;28;20061;-75
2023/08/10 03:33:02;;;;;;;1.25;0.57;;;;;;;;;;5048740;28;20024;-75
2023/08/10 03:35:28;;;;;;;0.40;0.40;;;;;;;;;;5054730;28;20027;-75
2023/08/10 03:37:54;;;;;;;0.50;0.50;;;;;;;;;;5057435;28;20438;-75
2023/08/10 03:40:20;;;;;;;2.25;0.50;;;;;;;;;;5048986;28;20361;-75
2023/08/10 03:42:46;;;;;;;0.40;0.40;;;;;;;;;;5054378;28;20546;-75
2023/08/10 03:45:12;;;;;;;0.77;0.77;;;;;;;;;;5053407;28;20552;-75
2023/08/10 03:47:38;;;;;;;1.42;0.80;;;;;;;;;;5057685;28;20039;-76
2023/08/10 03:50:04;;;;;;;0.50;0.40;;;;;;;;;;5048901;28;20059;-76
2023/08/10 03:52:30;;;;;;;0.63;0.60;;;;;;;;;;5053655;28;20108;-76
2023/08/10 03:54:56;;;;;;;0.73;0.65;;;;;;;;;;5049219;28;20040;-75
2023/08/10 03:57:23;;;;;;;0.68;0.60;;;;;;;;;;5047799;28;20020;-75
2023/08/10 03:59:49;;;;;;;0.52;0.40;;;;;;;;;;5067170;28;20533;-76
2023/08/10 04:02:15;;;;;;;0.50;0.50;;;;;;;;;;5052682;28;20036;-76
2023/08/10 04:04:40;;;;;;;0.50;0.47;;;;;;;;;;5051578;28;20487;-75
2023/08/10 04:07:07;;;;;;;1.05;0.70;;;;;;;;;;5052632;28;20442;-76
2023/08/10 04:09:33;;;;;;;0.60;0.60;;;;;;;;;;5053172;28;20036;-75
2023/08/10 04:11:59;;;;;;;0.47;0.32;;;;;;;;;;5053594;28;20071;-76
2023/08/10 04:14:25;;;;;;;0.82;0.70;;;;;;;;;;5051537;28;20441;-75
2023/08/10 04:16:51;;;;;;;0.40;0.40;;;;;;;;;;5057810;28;20028;-76
2023/08/10 04:19:18;;;;;;;0.52;0.50;;;;;;;;;;5068721;28;20028;-75
2023/08/10 04:21:45;;;;;;;0.55;0.55;;;;;;;;;;5060777;28;20078;-75
2023/08/10 04:24:11;;;;;;;0.60;0.50;;;;;;;;;;5061972;28;20037;-76
2023/08/10 04:26:37;;;;;;;0.98;0.88;;;;;;;;;;5063386;28;20029;-76
2023/08/10 04:29:03;;;;;;;0.43;0.43;;;;;;;;;;5051428;28;20032;-75
2023/08/10 04:31:29;;;;;;;0.50;0.50;;;;;;;;;;5053154;28;20032;-75
2023/08/10 04:33:55;;;;;;;0.45;0.45;;;;;;;;;;5058895;28;20673;-74
2023/08/10 04:36:21;;;;;;;0.60;0.60;;;;;;;;;;5053188;28;20033;-76
2023/08/10 04:38:47;;;;;;;0.60;0.60;;;;;;;;;;5053411;28;20033;-75
2023/08/10 04:41:13;;;;;;;0.40;0.40;;;;;;;;;;5052203;28;20379;-75
2023/08/10 04:43:39;;;;;;;0.80;0.60;;;;;;;;;;5052443;28;20505;-76
2023/08/10 04:46:05;;;;;;;0.57;0.57;;;;;;;;;;5056666;28;20031;-75
2023/08/10 04:48:31;;;;;;;0.60;0.40;;;;;;;;;;5061489;28;20020;-76
2023/08/10 04:50:57;;;;;;;1.15;0.90;;;;;;;;;;5058921;28;20406;-75
2023/08/10 04:53:23;;;;;;;0.65;0.60;;;;;;;;;;5052163;28;20033;-76
2023/08/10 04:55:51;;;;;;;0.60;0.60;;;;;;;;;;5066435;28;20394;-76
2023/08/10 04:58:17;;;;;;;0.63;0.60;;;;;;;;;;5057568;28;20112;-75
2023/08/10 05:00:42;;;;;;;0.50;0.50;;;;;;;;;;5064165;28;20116;-76
2023/08/10 05:03:09;;;;;;;0.70;0.70;;;;;;;;;;5053163;28;20051;-76
2023/08/10 05:05:35;;;;;;;0.52;0.52;;;;;;;;;;5053715;28;20048;-75
2023/08/10 05:08:01;;;;;;;1.60;0.68;;;;;;;;;;5050841;28;20033;-76
2023/08/10 05:10:27;;;;;;;0.63;0.63;;;;;;;;;;5056611;28;20017;-76
2023/08/10 05:12:53;;;;;;;0.60;0.43;;;;;;;;;;5063227;28;20502;-75
2023/08/10 05:15:19;;;;;;;0.70;0.70;;;;;;;;;;5061927;28;20048;-75
2023/08/10 05:17:45;;;;;;;0.63;0.63;;;;;;;;;;5065878;28;20020;-73
2023/08/10 05:20:11;;;;;;;1.23;0.60;;;;;;;;;;5056037;28;20564;-73
2023/08/10 05:22:38;;;;;;;0.82;0.60;;;;;;;;;;5059467;28;20037;-73
2023/08/10 05:25:05;;;;;;;0.40;0.40;;;;;;;;;;5056136;28;20124;-75
2023/08/10 05:27:31;;;;;;;0.55;0.55;;;;;;;;;;5062174;28;20107;-77
2023/08/10 05:29:57;;;;;;;0.60;0.50;;;;;;;;;;5054348;28;20033;-75
2023/08/10 05:32:24;;;;;;;0.57;0.50;;;;;;;;;;5060662;28;20036;-74
2023/08/10 05:34:50;;;;;;;1.10;0.70;;;;;;;;;;5067800;28;20020;-74
2023/08/10 05:37:17;;;;;;;0.70;0.70;;;;;;;;;;5055051;28;20044;-74
2023/08/10 05:39:43;;;;;;;2.83;0.47;;;;;;;;;;5054455;28;20020;-74
2023/08/10 05:42:09;;;;;;;0.77;0.60;;;;;;;;;;5058689;28;20036;-85
2023/08/10 05:44:35;;;;;;;1.08;0.50;;;;;;;;;;5066029;28;20025;-74
2023/08/10 05:47:01;;;;;;;2.55;0.60;;;;;;;;;;5063736;28;20032;-73
2023/08/10 05:49:27;;;;;;;1.80;0.88;;;;;;;;;;5054082;28;20016;-74
2023/08/10 05:51:53;;;;;;;0.52;0.43;;;;;;;;;;5066532;28;20467;-74
2023/08/10 05:54:19;;;;;;;2.22;0.65;;;;;;;;;;5062064;28;20138;-74
2023/08/10 05:56:45;;;;;;;0.55;0.55;;;;;;;;;;5059028;28;20045;-74
2023/08/10 05:59:11;;;;;;;0.50;0.50;;;;;;;;;;5053195;28;20017;-75
2023/08/10 06:01:37;;;;;;;0.75;0.50;;;;;;;;;;5066327;28;20029;-75
2023/08/10 06:04:04;;;;;;;1.55;0.40;;;;;;;;;;5058151;28;20021;-74
2023/08/10 06:06:31;;;;;;;0.90;0.80;;;;;;;;;;5051742;28;20131;-74
2023/08/10 06:08:57;;;;;;;2.45;0.60;;;;;;;;;;5054200;28;20033;-74
2023/08/10 06:11:23;;;;;;;0.63;0.63;;;;;;;;;;5053453;28;20028;-74
2023/08/10 06:13:49;;;;;;;2.25;0.82;;;;;;;;;;5061770;28;20382;-74
2023/08/10 06:16:15;;;;;;;1.63;0.50;;;;;;;;;;5063228;28;20044;-74
2023/08/10 06:18:41;;;;;;;0.45;0.43;;;;;;;;;;5054939;28;20025;-73
2023/08/10 06:21:07;;;;;;;1.23;0.63;;;;;;;;;;5050043;28;20045;-74
2023/08/10 06:23:33;;;;;;;1.95;0.60;;;;;;;;;;5049833;28;20079;-74
2023/08/10 06:26:00;;;;;;;1.40;0.73;;;;;;;;;;5064240;28;20028;-74
2023/08/10 06:28:29;;;;;;;0.95;0.85;;;;;;;;;;5057491;28;20024;-73
2023/08/10 06:30:55;;;;;;;0.57;0.57;;;;;;;;;;5056262;28;20043;-72
2023/08/10 06:33:21;;;;;;;0.65;0.43;;;;;;;;;;5061321;28;20024;-73
2023/08/10 06:35:48;;;;;;;1.48;0.70;;;;;;;;;;5061751;28;20498;-74
2023/08/10 06:38:14;;;;;;;0.60;0.60;;;;;;;;;;5058838;28;20103;-73
2023/08/10 06:40:40;;;;;;;1.67;1.00;;;;;;;;;;5053716;28;20025;-73
2023/08/10 06:43:06;;;;;;;3.03;0.75;;;;;;;;;;5063450;28;20040;-73
2023/08/10 06:45:32;;;;;;;0.68;0.68;;;;;;;;;;5049144;28;20029;-73
2023/08/10 06:47:58;;;;;;;0.63;0.63;;;;;;;;;;5054300;28;20038;-73
2023/08/10 06:50:24;;;;;;;0.50;0.50;;;;;;;;;;5049241;28;20372;-74
2023/08/10 06:52:51;;;;;;;1.02;1.00;;;;;;;;;;5050674;28;20392;-73
2023/08/10 06:55:17;;;;;;;0.60;0.60;;;;;;;;;;5052864;28;20021;-73
2023/08/10 06:57:44;;;;;;;0.50;0.50;;;;;;;;;;5050033;28;20021;-73
2023/08/10 07:00:13;;;;;;;1.33;0.88;;;;;;;;;;5060976;28;20376;-74
2023/08/10 07:02:39;;;;;;;0.45;0.40;;;;;;;;;;5053349;28;20441;-74
2023/08/10 07:05:06;;;;;;;4.82;0.68;;;;;;;;;;5050665;28;20040;-74
2023/08/10 07:07:32;;;;;;;0.50;0.50;;;;;;;;;;5053700;28;20028;-74
2023/08/10 07:09:58;;;;;;;0.90;0.57;;;;;;;;;;5049870;28;20025;-73
2023/08/10 07:12:24;;;;;;;4.47;1.00;;;;;;;;;;5056952;28;20056;-73
2023/08/10 07:14:50;;;;;;;1.70;0.57;;;;;;;;;;5060234;28;20027;-75
2023/08/10 07:17:16;;;;;;;4.38;1.27;;;;;;;;;;5064589;28;20032;-76
2023/08/10 07:19:43;;;;;;;1.60;1.05;;;;;;;;;;5052131;28;20025;-74
2023/08/10 07:22:09;;;;;;;1.35;0.60;;;;;;;;;;5051005;28;20044;-74
2023/08/10 07:24:35;;;;;;;1.95;1.10;;;;;;;;;;5061645;28;20056;-74
2023/08/10 07:27:00;;;;;;;1.30;0.50;;;;;;;;;;5053850;28;20031;-75
2023/08/10 07:29:26;;;;;;;2.65;0.63;;;;;;;;;;5067031;28;20024;-74
2023/08/10 07:32:00;;;;;;;1.58;0.85;;;;;;;;;;5050250;28;20029;-75
2023/08/10 07:34:26;;;;;;;0.47;0.40;;;;;;;;;;5053808;28;20028;-76
2023/08/10 07:36:52;;;;;;;2.38;0.47;;;;;;;;;;5055401;28;20032;-75
2023/08/10 07:39:18;;;;;;;0.52;0.40;;;;;;;;;;5051226;28;20033;-75
2023/08/10 07:41:47;;;;;;;0.30;0.30;;;;;;;;;;5051353;28;20075;-75
2023/08/10 07:44:13;;;;;;;3.38;0.40;;;;;;;;;;5053198;28;20086;-75
2023/08/10 07:46:39;;;;;;;2.75;0.63;;;;;;;;;;5052144;28;20032;-76
2023/08/10 07:49:05;;;;;;;1.08;0.47;;;;;;;;;;5048072;28;20021;-76
2023/08/10 07:51:31;;;;;;;1.63;0.50;;;;;;;;;;5052073;28;20031;-75
2023/08/10 07:53:57;;;;;;;2.85;0.68;;;;;;;;;;5048391;28;20029;-75
2023/08/10 07:56:23;;;;;;;3.38;1.00;;;;;;;;;;5057206;28;20032;-75
2023/08/10 07:58:49;;;;;;;1.00;0.90;;;;;;;;;;5060476;28;20025;-76
2023/08/10 08:01:15;;;;;;;0.55;0.30;;;;;;;;;;5058354;28;20028;-75
2023/08/10 08:03:41;;;;;;;0.52;0.50;;;;;;;;;;5052822;28;20597;-76
2023/08/10 08:06:08;;;;;;;2.72;0.65;;;;;;;;;;5048556;28;20091;-76
2023/08/10 08:08:34;;;;;;;2.78;0.60;;;;;;;;;;5054106;28;20104;-76
2023/08/10 08:11:00;;;;;;;0.70;0.70;;;;;;;;;;5057565;28;20040;-75
2023/08/10 08:13:26;;;;;;;2.00;0.57;;;;;;;;;;5059043;28;20032;-76
2023/08/10 08:15:52;;;;;;;4.28;0.70;;;;;;;;;;5054534;28;20037;-74
2023/08/10 08:18:41;;;;;;;4.32;0.52;;;;;;;;;;5056369;28;20025;-74
2023/08/10 08:21:08;;;;;;;0.50;0.50;;;;;;;;;;5056544;28;20132;-73
2023/08/10 08:23:34;;;;;;;2.28;0.73;;;;;;;;;;5052769;28;20056;-76
2023/08/10 08:26:00;;;;;;;1.35;0.90;;;;;;;;;;5064940;28;20518;-88
2023/08/10 08:28:26;;;;;;;2.60;0.63;;;;;;;;;;5060087;28;20033;-76
2023/08/10 08:30:53;;;;;;;2.95;0.63;;;;;;;;;;5062418;28;20506;-87
2023/08/10 08:33:19;;;;;;;0.57;0.45;;;;;;;;;;5052577;28;20503;-75
2023/08/10 08:35:46;;;;;;;0.98;0.65;;;;;;;;;;5051399;28;20430;-83
2023/08/10 08:38:15;;;;;;;0.50;0.50;;;;;;;;;;5066912;28;20521;-80
2023/08/10 08:40:42;;;;;;;1.98;0.70;;;;;;;;;;5056433;28;20494;-76
2023/08/10 08:43:08;;;;;;;2.50;0.55;;;;;;;;;;5056336;28;20539;-75
2023/08/10 08:45:34;;;;;;;1.42;0.60;;;;;;;;;;5059152;28;20163;-80
2023/08/10 13:05:38;;;;;;;1.10;0.90;;;;;;;;;;5105996;27;20389;-74
2023/08/10 13:08:04;;;;;;;1.92;0.60;;;;;;;;;;5082646;28;20476;-74
2023/08/10 13:10:30;;;;;;;0.43;0.40;;;;;;;;;;5091633;28;20024;-73
2023/08/10 13:12:56;;;;;;;1.33;0.68;;;;;;;;;;5082830;28;20150;-74
2023/08/10 13:15:22;;;;;;;1.95;0.80;;;;;;;;;;5076504;28;21047;-74
2023/08/10 13:17:48;;;;;;;0.50;0.50;;;;;;;;;;5082192;28;20024;-74
2023/08/10 13:20:14;;;;;;;2.28;1.25;;;;;;;;;;5087162;28;20055;-75
2023/08/10 13:22:43;;;;;;;1.85;0.68;;;;;;;;;;5084626;28;20514;-74
2023/08/10 13:25:09;;;;;;;0.55;0.43;;;;;;;;;;5084764;28;20024;-74
2023/08/10 13:27:35;;;;;;;3.30;0.68;;;;;;;;;;5082637;28;20442;-73
2023/08/10 13:30:04;;;;;;;1.65;0.70;;;;;;;;;;5082897;28;20399;-74
2023/08/10 13:32:30;;;;;;;0.40;0.40;;;;;;;;;;5088674;28;20032;-74
2023/08/10 13:34:56;;;;;;;0.75;0.75;;;;;;;;;;5091240;28;20028;-74
2023/08/10 13:37:22;;;;;;;0.55;0.55;;;;;;;;;;5085313;28;20399;-73
2023/08/10 13:39:48;;;;;;;2.53;1.10;;;;;;;;;;5085910;28;20025;-73
2023/08/10 13:42:14;;;;;;;1.38;0.70;;;;;;;;;;5083721;28;20031;-74
2023/08/10 13:44:40;;;;;;;0.82;0.70;;;;;;;;;;5083772;28;20074;-73
2023/08/10 13:47:06;;;;;;;0.60;0.60;;;;;;;;;;5075084;28;20032;-74
2023/08/10 13:49:34;;;;;;;4.75;0.80;;;;;;;;;;5083535;28;20031;-73
2023/08/10 13:52:01;;;;;;;1.75;0.65;;;;;;;;;;5088577;28;20530;-73
2023/08/10 13:57:11;;;;;;;1.13;0.68;;;;;;;;;;5901771;23;20402;-73
2023/08/10 13:59:37;;;;;;;0.60;0.60;;;;;;;;;;5023869;28;20063;-74
2023/08/10 14:02:05;;;;;;;1.15;0.70;;;;;;;;;;5037517;28;20033;-74
2023/08/10 14:04:31;;;;;;;0.52;0.40;;;;;;;;;;5013664;28;20437;-74
2023/08/10 14:06:57;;;;;;;0.63;0.63;;;;;;;;;;5008162;28;20168;-74
2023/08/10 14:09:23;;;;;;;1.10;0.60;;;;;;;;;;5009132;28;20030;-74
2023/08/10 14:11:49;;;;;;;1.65;0.68;;;;;;;;;;5012098;28;20084;-73
2023/08/10 14:14:17;;;;;;;0.55;0.50;;;;;;;;;;5006950;28;20452;-73
2023/08/10 14:16:43;;;;;;;0.77;0.70;;;;;;;;;;5008259;28;20088;-74
2023/08/10 14:19:09;;;;;;;2.45;1.45;;;;;;;;;;5008064;28;20332;-74
2023/08/10 14:21:35;;;;;;;0.60;0.55;;;;;;;;;;5008573;28;20025;-74
2023/08/10 14:24:01;;;;;;;2.58;0.60;;;;;;;;;;5009029;28;20597;-76
2023/08/10 14:26:27;;;;;;;0.90;0.88;;;;;;;;;;5008245;28;20033;-73
2023/08/10 14:28:53;;;;;;;0.80;0.80;;;;;;;;;;5010073;28;20112;-82
2023/08/10 14:31:22;;;;;;;0.90;0.80;;;;;;;;;;5006042;28;20441;-78
2023/08/10 14:33:50;;;;;;;8.73;1.50;;;;;;;;;;5013046;28;20064;-75
2023/08/10 14:36:16;;;;;;;15.55;2.40;;;;;;;;;;5007263;28;20026;-75
2023/08/10 14:38:42;;;;;;;13.80;3.15;;;;;;;;;;5016060;28;20041;-76
2023/08/10 14:41:08;;;;;;;13.25;1.17;;;;;;;;;;5010498;28;20022;-82
2023/08/10 14:43:34;;;;;;;7.20;1.17;;;;;;;;;;5009961;28;20088;-76
2023/08/10 14:46:00;;;;;;;1.38;1.05;;;;;;;;;;5009945;28;20022;-77
2023/08/10 14:48:26;;;;;;;12.02;1.55;;;;;;;;;;5011055;28;20469;-74
2023/08/10 14:50:52;;;;;;;12.32;1.75;;;;;;;;;;5008017;28;20034;-76
2023/08/10 14:53:18;;;;;;;7.82;2.28;;;;;;;;;;5007962;28;20033;-74
2023/08/10 14:55:44;;;;;;;3.85;0.88;;;;;;;;;;5012295;28;20466;-75
2023/08/10 14:58:10;;;;;;;4.80;1.17;;;;;;;;;;5009803;28;20290;-74
2023/08/10 15:00:36;;;;;;;4.95;0.98;;;;;;;;;;5006823;28;20034;-76
2023/08/10 15:03:03;;;;;;;0.98;0.82;;;;;;;;;;5002225;28;20852;-74
2023/08/10 15:05:29;;;;;;;2.03;1.15;;;;;;;;;;5002973;28;20022;-74
2023/08/10 15:07:55;;;;;;;4.97;1.10;;;;;;;;;;5008673;28;20033;-75
2023/08/10 15:10:21;;;;;;;1.45;0.70;;;;;;;;;;5003176;28;20026;-74
2023/08/10 15:12:47;;;;;;;4.07;0.70;;;;;;;;;;5002656;28;20112;-75
2023/08/10 15:15:14;;;;;;;1.08;0.75;;;;;;;;;;5006120;28;20112;-75
2023/08/10 15:17:40;;;;;;;5.80;0.73;;;;;;;;;;5004178;28;20033;-75
2023/08/10 15:20:09;;;;;;;1.67;0.95;;;;;;;;;;5006884;28;20105;-74
2023/08/10 15:22:36;;;;;;;1.40;0.70;;;;;;;;;;5006736;28;20018;-76
2023/08/10 15:25:04;;;;;;;4.95;1.75;;;;;;;;;;5003637;28;20490;-75
2023/08/10 15:27:30;;;;;;;0.85;0.70;;;;;;;;;;5003453;28;20035;-75
2023/08/10 15:29:56;;;;;;;0.85;0.73;;;;;;;;;;5002766;28;20728;-75
2023/08/10 15:32:22;;;;;;;1.23;0.77;;;;;;;;;;5003495;28;20100;-74
2023/08/10 15:34:48;;;;;;;1.17;0.90;;;;;;;;;;5003353;28;20025;-74
2023/08/10 15:37:14;;;;;;;1.08;0.70;;;;;;;;;;5005121;28;20104;-77
2023/08/10 15:39:40;;;;;;;0.95;0.85;;;;;;;;;;5007563;28;20022;-77
2023/08/10 15:42:06;;;;;;;0.82;0.60;;;;;;;;;;5004445;28;20474;-77
2023/08/10 15:44:32;;;;;;;1.25;0.88;;;;;;;;;;5006964;28;20029;-75
2023/08/10 15:46:58;;;;;;;1.35;0.63;;;;;;;;;;5006405;28;20073;-77
2023/08/10 15:49:23;;;;;;;0.82;0.63;;;;;;;;;;5007277;28;20397;-75
2023/08/10 15:51:49;;;;;;;0.70;0.70;;;;;;;;;;5008049;28;20048;-76
2023/08/10 15:54:16;;;;;;;0.47;0.45;;;;;;;;;;5005155;28;20088;-75
2023/08/10 15:56:42;;;;;;;0.60;0.60;;;;;;;;;;5006334;28;20445;-75
2023/08/10 15:59:08;;;;;;;3.50;0.98;;;;;;;;;;5003486;28;20044;-75
2023/08/10 16:01:34;;;;;;;2.50;1.20;;;;;;;;;;5001653;28;20030;-75
2023/08/10 16:04:00;;;;;;;1.42;0.60;;;;;;;;;;5007043;28;20030;-75
2023/08/10 16:06:26;;;;;;;0.70;0.70;;;;;;;;;;5002227;28;20044;-75
2023/08/10 16:08:52;;;;;;;1.30;0.90;;;;;;;;;;5005621;28;20654;-75
2023/08/10 16:11:19;;;;;;;1.65;0.80;;;;;;;;;;5006292;28;20401;-75
2023/08/10 16:13:45;;;;;;;0.63;0.40;;;;;;;;;;5005520;28;20068;-75
2023/08/10 16:16:11;;;;;;;1.40;0.70;;;;;;;;;;5004444;28;20421;-75
2023/08/10 16:18:37;;;;;;;0.70;0.43;;;;;;;;;;5001485;28;20028;-75
2023/08/10 16:21:03;;;;;;;0.93;0.70;;;;;;;;;;5007103;28;20037;-78
2023/08/10 16:23:29;;;;;;;0.55;0.55;;;;;;;;;;5004275;28;20014;-77
2023/08/10 16:25:55;;;;;;;3.15;0.75;;;;;;;;;;5003658;28;20663;-74
2023/08/10 16:28:21;;;;;;;0.85;0.45;;;;;;;;;;5006455;28;20041;-75
2023/08/10 16:30:47;;;;;;;0.95;0.60;;;;;;;;;;5004793;28;20029;-74
2023/08/10 16:33:13;;;;;;;3.10;0.82;;;;;;;;;;5005876;28;20091;-74
2023/08/10 16:35:39;;;;;;;1.00;0.85;;;;;;;;;;5006986;28;20097;-75
2023/08/10 16:38:05;;;;;;;0.55;0.55;;;;;;;;;;5007550;28;20042;-75
2023/08/10 16:40:31;;;;;;;0.70;0.60;;;;;;;;;;5005080;28;20040;-75
2023/08/10 16:42:58;;;;;;;1.02;0.60;;;;;;;;;;5007824;28;20518;-75
2023/08/10 16:45:24;;;;;;;0.68;0.60;;;;;;;;;;5005282;28;20032;-75
2023/08/10 16:47:50;;;;;;;0.55;0.55;;;;;;;;;;5007446;28;20080;-75
2023/08/10 16:50:16;;;;;;;1.00;0.57;;;;;;;;;;5005486;28;20026;-75
2023/08/10 16:52:42;;;;;;;0.73;0.60;;;;;;;;;;5007243;28;20024;-75
2023/08/10 16:55:08;;;;;;;0.80;0.60;;;;;;;;;;5005042;28;20452;-75
2023/08/10 16:57:34;;;;;;;0.52;0.52;;;;;;;;;;5006397;28;20041;-75
2023/08/10 17:00:01;;;;;;;1.75;0.85;;;;;;;;;;5004517;28;20371;-75
2023/08/10 17:02:27;;;;;;;4.55;0.80;;;;;;;;;;5006281;28;20029;-75
2023/08/10 17:04:53;;;;;;;1.30;0.60;;;;;;;;;;5006379;28;20039;-75
2023/08/10 17:07:19;;;;;;;0.52;0.52;;;;;;;;;;5005685;28;20038;-75
2023/08/10 17:09:45;;;;;;;0.77;0.68;;;;;;;;;;5000622;28;20116;-75
2023/08/10 17:12:11;;;;;;;0.73;0.70;;;;;;;;;;5003954;28;20057;-74
2023/08/10 17:14:37;;;;;;;0.50;0.50;;;;;;;;;;5005156;28;20029;-76
2023/08/10 17:17:03;;;;;;;1.38;0.93;;;;;;;;;;5005504;28;20053;-76
2023/08/10 17:19:29;;;;;;;0.52;0.52;;;;;;;;;;5002236;28;20022;-75
2023/08/10 17:21:55;;;;;;;0.60;0.60;;;;;;;;;;5005869;28;20139;-76
2023/08/10 17:24:21;;;;;;;0.47;0.47;;;;;;;;;;5003139;28;20037;-75
2023/08/10 17:26:47;;;;;;;0.50;0.50;;;;;;;;;;5006054;28;20156;-79
2023/08/10 17:29:13;;;;;;;0.65;0.65;;;;;;;;;;5004966;28;20065;-78
2023/08/10 17:31:39;;;;;;;0.50;0.50;;;;;;;;;;5004081;28;20136;-78
2023/08/10 17:34:05;;;;;;;0.50;0.50;;;;;;;;;;5000553;28;20103;-77
2023/08/10 17:36:31;;;;;;;2.88;0.85;;;;;;;;;;5003043;28;20029;-77
2023/08/10 17:38:57;;;;;;;2.75;1.05;;;;;;;;;;5002678;28;20392;-78
2023/08/10 17:41:23;;;;;;;5.30;1.27;;;;;;;;;;5006279;28;20030;-77
2023/08/10 17:43:49;;;;;;;6.13;1.13;;;;;;;;;;5004781;28;20022;-76
2023/08/10 17:46:15;;;;;;;1.40;1.20;;;;;;;;;;5010214;28;20033;-76
2023/08/10 17:48:41;;;;;;;3.22;1.40;;;;;;;;;;5008942;28;20112;-76
2023/08/10 17:51:07;;;;;;;4.78;1.20;;;;;;;;;;5007834;28;20088;-77
2023/08/10 17:53:33;;;;;;;2.75;1.17;;;;;;;;;;5007261;28;20478;-76
2023/08/10 17:55:59;;;;;;;1.50;1.17;;;;;;;;;;5009499;28;20037;-75
2023/08/10 17:58:25;;;;;;;3.20;1.13;;;;;;;;;;5005452;28;20607;-75
2023/08/10 18:00:51;;;;;;;1.95;1.33;;;;;;;;;;5006480;28;20026;-75
2023/08/10 18:03:17;;;;;;;6.22;1.73;;;;;;;;;;5009514;28;20081;-74
2023/08/10 18:05:43;;;;;;;4.07;1.73;;;;;;;;;;5006163;28;20099;-74
2023/08/10 18:08:10;;;;;;;1.75;1.27;;;;;;;;;;5006564;28;20125;-74
2023/08/10 18:10:39;;;;;;;2.50;1.50;;;;;;;;;;5006553;28;20404;-74
2023/08/10 18:13:05;;;;;;;8.27;2.38;;;;;;;;;;5009423;28;20029;-74
2023/08/10 18:15:31;;;;;;;4.38;2.33;;;;;;;;;;5009468;28;20037;-75
2023/08/10 18:17:57;;;;;;;10.82;3.40;;;;;;;;;;5007277;28;20493;-75
2023/08/10 18:20:23;;;;;;;11.05;2.83;;;;;;;;;;5007974;28;20026;-75
2023/08/10 18:22:49;;;;;;;15.20;3.42;;;;;;;;;;5009565;28;20018;-75
2023/08/10 18:25:15;;;;;;;8.48;3.35;;;;;;;;;;5009137;28;20099;-75
2023/08/10 18:27:41;;;;;;;10.52;2.80;;;;;;;;;;5006853;28;20030;-77
2023/08/10 18:30:08;;;;;;;5.40;2.50;;;;;;;;;;5006547;28;20030;-74
2023/08/10 18:32:34;;;;;;;6.15;2.53;;;;;;;;;;4999395;28;20038;-76
2023/08/10 18:35:00;;;;;;;7.90;2.60;;;;;;;;;;5009998;28;20030;-74
2023/08/10 18:37:27;;;;;;;7.38;2.65;;;;;;;;;;5002980;28;20433;-73
2023/08/10 18:39:53;;;;;;;9.30;3.58;;;;;;;;;;5003220;28;20382;-74
2023/08/10 18:42:19;;;;;;;7.13;2.63;;;;;;;;;;5005899;28;20025;-78
2023/08/10 18:44:45;;;;;;;3.78;1.98;;;;;;;;;;5005613;28;20033;-75
2023/08/10 18:47:11;;;;;;;3.80;2.22;;;;;;;;;;5005755;28;20026;-74
2023/08/10 18:49:38;;;;;;;3.22;2.00;;;;;;;;;;5008066;28;20033;-74
2023/08/10 18:52:04;;;;;;;6.15;2.35;;;;;;;;;;5007051;28;20034;-74
2023/08/10 18:54:30;;;;;;;3.58;1.77;;;;;;;;;;5007549;28;20045;-76
2023/08/10 18:56:56;;;;;;;2.80;1.10;;;;;;;;;;5006454;28;20026;-74
2023/08/10 18:59:22;;;;;;;4.10;2.10;;;;;;;;;;5005798;28;20033;-74